sensor_id;sensor_type;location;lat;lon;timestamp;temperature;humidity
37289;DHT22;23174;49.462;11.000;2022-12-18T00:01:57;-1.50;99.90
37289;DHT22;23174;49.462;11.000;2022-12-18T00:04:01;-1.60;99.90
37289;DHT22;23174;49.462;11.000;2022-12-18T00:06:02;-1.70;99.90
37289;DHT22;23174;49.462;11.000;2022-12-18T00:08:03;-1.70;99.90
37289;DHT22;23174;49.462;11.000;2022-12-18T00:10:04;-1.80;99.90
37289;DHT22;23174;49.462;11.000;2022-12-18T00:12:05;-1.90;99.90
37289;DHT22;23174;49.462;11.000;2022-12-18T00:14:05;-2.40;99.90
37289;DHT22;23174;49.462;11.000;2022-12-18T00:16:12;-3.10;99.90
37289;DHT22;23174;49.462;11.000;2022-12-18T00:18:13;-3.70;99.90
37289;DHT22;23174;49.462;11.000;2022-12-18T00:20:13;-3.80;99.90
37289;DHT22;23174;49.462;11.000;2022-12-18T00:22:14;-3.60;99.90
37289;DHT22;23174;49.462;11.000;2022-12-18T00:24:20;-3.30;99.90
37289;DHT22;23174;49.462;11.000;2022-12-18T00:26:23;-2.90;99.90
37289;DHT22;23174;49.462;11.000;2022-12-18T00:28:24;-2.10;99.90
37289;DHT22;23174;49.462;11.000;2022-12-18T00:30:24;-1.90;99.90
37289;DHT22;23174;49.462;11.000;2022-12-18T00:32:25;-1.70;99.90
37289;DHT22;23174;49.462;11.000;2022-12-18T00:34:25;-1.70;99.90
37289;DHT22;23174;49.462;11.000;2022-12-18T00:36:29;-1.60;99.90
37289;DHT22;23174;49.462;11.000;2022-12-18T00:38:30;-1.70;99.90
37289;DHT22;23174;49.462;11.000;2022-12-18T00:40:30;-1.70;99.90
37289;DHT22;23174;49.462;11.000;2022-12-18T00:42:31;-1.60;99.90
37289;DHT22;23174;49.462;11.000;2022-12-18T00:44:50;-1.60;99.90
37289;DHT22;23174;49.462;11.000;2022-12-18T00:46:50;-1.70;99.90
37289;DHT22;23174;49.462;11.000;2022-12-18T00:48:51;-1.70;99.90
37289;DHT22;23174;49.462;11.000;2022-12-18T00:50:52;-1.80;99.90
37289;DHT22;23174;49.462;11.000;2022-12-18T00:52:52;-1.70;99.90
37289;DHT22;23174;49.462;11.000;2022-12-18T00:54:53;-1.60;99.90
37289;DHT22;23174;49.462;11.000;2022-12-18T00:56:53;-1.70;99.90
37289;DHT22;23174;49.462;11.000;2022-12-18T00:58:55;-1.70;99.90
37289;DHT22;23174;49.462;11.000;2022-12-18T01:00:56;-1.80;99.90
37289;DHT22;23174;49.462;11.000;2022-12-18T01:02:56;-1.80;99.90
37289;DHT22;23174;49.462;11.000;2022-12-18T01:04:57;-2.00;99.90
37289;DHT22;23174;49.462;11.000;2022-12-18T01:06:58;-2.10;99.90
37289;DHT22;23174;49.462;11.000;2022-12-18T01:08:58;-2.30;99.90
37289;DHT22;23174;49.462;11.000;2022-12-18T01:10:59;-2.40;99.90
37289;DHT22;23174;49.462;11.000;2022-12-18T01:13:00;-2.40;99.90
37289;DHT22;23174;49.462;11.000;2022-12-18T01:15:01;-2.40;99.90
37289;DHT22;23174;49.462;11.000;2022-12-18T01:17:01;-2.40;99.90
37289;DHT22;23174;49.462;11.000;2022-12-18T01:19:04;-2.40;99.90
37289;DHT22;23174;49.462;11.000;2022-12-18T01:21:09;-2.30;99.90
37289;DHT22;23174;49.462;11.000;2022-12-18T01:23:10;-2.40;99.90
37289;DHT22;23174;49.462;11.000;2022-12-18T01:25:11;-2.20;99.90
37289;DHT22;23174;49.462;11.000;2022-12-18T01:27:11;-2.10;99.90
37289;DHT22;23174;49.462;11.000;2022-12-18T01:29:12;-1.90;99.90
37289;DHT22;23174;49.462;11.000;2022-12-18T01:31:19;-1.80;99.90
37289;DHT22;23174;49.462;11.000;2022-12-18T01:33:20;-1.80;99.90
37289;DHT22;23174;49.462;11.000;2022-12-18T01:35:21;-1.80;99.90
37289;DHT22;23174;49.462;11.000;2022-12-18T01:37:21;-1.90;99.90
37289;DHT22;23174;49.462;11.000;2022-12-18T01:39:22;-1.80;99.90
37289;DHT22;23174;49.462;11.000;2022-12-18T01:41:26;-1.80;99.90
37289;DHT22;23174;49.462;11.000;2022-12-18T01:45:46;-1.50;99.90
37289;DHT22;23174;49.462;11.000;2022-12-18T01:47:49;-1.50;99.90
37289;DHT22;23174;49.462;11.000;2022-12-18T01:49:51;-1.20;99.90
37289;DHT22;23174;49.462;11.000;2022-12-18T01:51:52;-1.30;99.90
37289;DHT22;23174;49.462;11.000;2022-12-18T01:53:53;-1.10;99.90
37289;DHT22;23174;49.462;11.000;2022-12-18T01:55:56;-1.30;99.90
37289;DHT22;23174;49.462;11.000;2022-12-18T01:57:58;-1.20;99.90
37289;DHT22;23174;49.462;11.000;2022-12-18T02:00:03;-1.20;99.90
37289;DHT22;23174;49.462;11.000;2022-12-18T02:02:05;-1.10;99.90
37289;DHT22;23174;49.462;11.000;2022-12-18T02:04:20;-1.00;99.90
37289;DHT22;23174;49.462;11.000;2022-12-18T02:06:34;-1.20;99.90
37289;DHT22;23174;49.462;11.000;2022-12-18T02:13:29;-1.30;99.90
37289;DHT22;23174;49.462;11.000;2022-12-18T02:15:40;-1.20;99.90
37289;DHT22;23174;49.462;11.000;2022-12-18T02:17:57;-1.00;99.90
37289;DHT22;23174;49.462;11.000;2022-12-18T02:22:34;-0.90;99.90
37289;DHT22;23174;49.462;11.000;2022-12-18T02:25:12;-0.70;99.90
37289;DHT22;23174;49.462;11.000;2022-12-18T02:27:07;-0.70;99.90
37289;DHT22;23174;49.462;11.000;2022-12-18T02:29:16;-0.70;99.90
37289;DHT22;23174;49.462;11.000;2022-12-18T02:31:23;-0.70;99.90
37289;DHT22;23174;49.462;11.000;2022-12-18T02:33:26;-0.60;99.90
37289;DHT22;23174;49.462;11.000;2022-12-18T02:35:29;-0.50;99.90
37289;DHT22;23174;49.462;11.000;2022-12-18T02:37:31;-0.60;99.90
37289;DHT22;23174;49.462;11.000;2022-12-18T02:39:34;-0.60;99.90
37289;DHT22;23174;49.462;11.000;2022-12-18T02:41:37;-0.40;99.90
37289;DHT22;23174;49.462;11.000;2022-12-18T02:43:38;-0.40;99.90
37289;DHT22;23174;49.462;11.000;2022-12-18T02:45:54;-0.40;99.90
37289;DHT22;23174;49.462;11.000;2022-12-18T02:47:56;-0.30;99.90
37289;DHT22;23174;49.462;11.000;2022-12-18T02:55:08;-0.20;99.90
37289;DHT22;23174;49.462;11.000;2022-12-18T02:57:40;-0.20;99.90
37289;DHT22;23174;49.462;11.000;2022-12-18T02:59:53;0.00;99.90
37289;DHT22;23174;49.462;11.000;2022-12-18T03:02:26;0.00;99.90
37289;DHT22;23174;49.462;11.000;2022-12-18T03:05:34;0.20;99.90
37289;DHT22;23174;49.462;11.000;2022-12-18T03:07:06;0.20;99.90
37289;DHT22;23174;49.462;11.000;2022-12-18T03:09:12;0.20;99.90
37289;DHT22;23174;49.462;11.000;2022-12-18T03:11:15;0.20;99.90
37289;DHT22;23174;49.462;11.000;2022-12-18T03:15:48;0.10;99.90
37289;DHT22;23174;49.462;11.000;2022-12-18T03:18:01;0.10;99.90
37289;DHT22;23174;49.462;11.000;2022-12-18T03:20:12;0.20;99.90
37289;DHT22;23174;49.462;11.000;2022-12-18T03:22:15;0.20;99.90
37289;DHT22;23174;49.462;11.000;2022-12-18T03:24:17;0.30;99.90
37289;DHT22;23174;49.462;11.000;2022-12-18T03:26:23;0.50;99.90
37289;DHT22;23174;49.462;11.000;2022-12-18T03:28:27;0.30;99.90
37289;DHT22;23174;49.462;11.000;2022-12-18T03:30:29;0.30;99.90
37289;DHT22;23174;49.462;11.000;2022-12-18T03:32:35;0.40;99.90
37289;DHT22;23174;49.462;11.000;2022-12-18T03:34:39;0.40;99.90
37289;DHT22;23174;49.462;11.000;2022-12-18T03:36:40;0.50;99.90
37289;DHT22;23174;49.462;11.000;2022-12-18T03:38:40;0.60;99.90
37289;DHT22;23174;49.462;11.000;2022-12-18T03:40:53;0.60;99.90
37289;DHT22;23174;49.462;11.000;2022-12-18T03:43:45;0.60;99.90
37289;DHT22;23174;49.462;11.000;2022-12-18T03:45:40;0.70;99.90
37289;DHT22;23174;49.462;11.000;2022-12-18T03:48:04;0.70;99.90
37289;DHT22;23174;49.462;11.000;2022-12-18T03:50:20;0.70;99.90
37289;DHT22;23174;49.462;11.000;2022-12-18T03:52:38;0.70;99.90
37289;DHT22;23174;49.462;11.000;2022-12-18T03:54:41;0.90;99.90
37289;DHT22;23174;49.462;11.000;2022-12-18T03:56:47;0.70;99.90
37289;DHT22;23174;49.462;11.000;2022-12-18T03:58:50;0.80;99.90
37289;DHT22;23174;49.462;11.000;2022-12-18T04:00:53;0.90;99.90
37289;DHT22;23174;49.462;11.000;2022-12-18T04:02:56;0.90;99.90
37289;DHT22;23174;49.462;11.000;2022-12-18T04:05:00;0.90;99.90
37289;DHT22;23174;49.462;11.000;2022-12-18T04:07:02;0.80;99.90
37289;DHT22;23174;49.462;11.000;2022-12-18T04:09:04;0.80;99.90
37289;DHT22;23174;49.462;11.000;2022-12-18T04:11:06;0.80;99.90
37289;DHT22;23174;49.462;11.000;2022-12-18T04:13:06;0.80;99.90
37289;DHT22;23174;49.462;11.000;2022-12-18T04:15:08;0.80;99.90
37289;DHT22;23174;49.462;11.000;2022-12-18T04:17:09;0.80;99.90
37289;DHT22;23174;49.462;11.000;2022-12-18T04:19:09;0.90;99.90
37289;DHT22;23174;49.462;11.000;2022-12-18T04:21:10;0.90;99.90
37289;DHT22;23174;49.462;11.000;2022-12-18T04:23:11;0.90;99.90
37289;DHT22;23174;49.462;11.000;2022-12-18T04:25:12;0.90;99.90
37289;DHT22;23174;49.462;11.000;2022-12-18T04:27:12;0.90;99.90
37289;DHT22;23174;49.462;11.000;2022-12-18T04:29:13;0.90;99.90
37289;DHT22;23174;49.462;11.000;2022-12-18T04:31:13;1.00;99.90
37289;DHT22;23174;49.462;11.000;2022-12-18T04:33:16;1.10;99.90
37289;DHT22;23174;49.462;11.000;2022-12-18T04:35:20;1.00;99.90
37289;DHT22;23174;49.462;11.000;2022-12-18T04:37:20;1.10;99.90
37289;DHT22;23174;49.462;11.000;2022-12-18T04:39:21;1.00;99.90
37289;DHT22;23174;49.462;11.000;2022-12-18T04:41:21;1.10;99.90
37289;DHT22;23174;49.462;11.000;2022-12-18T04:43:22;1.10;99.90
37289;DHT22;23174;49.462;11.000;2022-12-18T04:45:23;1.10;99.90
37289;DHT22;23174;49.462;11.000;2022-12-18T04:47:23;1.10;99.90
37289;DHT22;23174;49.462;11.000;2022-12-18T04:49:24;1.10;99.90
37289;DHT22;23174;49.462;11.000;2022-12-18T04:51:24;1.10;99.90
37289;DHT22;23174;49.462;11.000;2022-12-18T04:53:25;1.20;99.90
37289;DHT22;23174;49.462;11.000;2022-12-18T04:55:26;1.30;99.90
37289;DHT22;23174;49.462;11.000;2022-12-18T04:57:27;1.20;99.90
37289;DHT22;23174;49.462;11.000;2022-12-18T04:59:28;1.20;99.90
37289;DHT22;23174;49.462;11.000;2022-12-18T05:01:28;1.20;99.90
37289;DHT22;23174;49.462;11.000;2022-12-18T05:03:29;1.20;99.90
37289;DHT22;23174;49.462;11.000;2022-12-18T05:05:30;1.10;99.90
37289;DHT22;23174;49.462;11.000;2022-12-18T05:07:30;1.10;99.90
37289;DHT22;23174;49.462;11.000;2022-12-18T05:09:31;1.10;99.90
37289;DHT22;23174;49.462;11.000;2022-12-18T05:11:31;1.10;99.90
37289;DHT22;23174;49.462;11.000;2022-12-18T05:13:33;1.10;99.90
37289;DHT22;23174;49.462;11.000;2022-12-18T05:15:33;1.10;99.90
37289;DHT22;23174;49.462;11.000;2022-12-18T05:17:34;1.20;99.90
37289;DHT22;23174;49.462;11.000;2022-12-18T05:19:34;1.30;99.90
37289;DHT22;23174;49.462;11.000;2022-12-18T05:21:35;1.20;99.90
37289;DHT22;23174;49.462;11.000;2022-12-18T05:23:44;1.20;99.90
37289;DHT22;23174;49.462;11.000;2022-12-18T05:25:51;1.20;99.90
37289;DHT22;23174;49.462;11.000;2022-12-18T05:27:52;1.30;99.90
37289;DHT22;23174;49.462;11.000;2022-12-18T05:29:53;1.30;99.90
37289;DHT22;23174;49.462;11.000;2022-12-18T05:31:53;1.30;99.90
37289;DHT22;23174;49.462;11.000;2022-12-18T05:33:54;1.30;99.90
37289;DHT22;23174;49.462;11.000;2022-12-18T05:35:57;1.30;99.90
37289;DHT22;23174;49.462;11.000;2022-12-18T05:37:58;1.40;99.90
37289;DHT22;23174;49.462;11.000;2022-12-18T05:39:59;1.40;99.90
37289;DHT22;23174;49.462;11.000;2022-12-18T05:41:59;1.30;99.90
37289;DHT22;23174;49.462;11.000;2022-12-18T05:44:00;1.40;99.90
37289;DHT22;23174;49.462;11.000;2022-12-18T05:46:05;1.40;99.90
37289;DHT22;23174;49.462;11.000;2022-12-18T05:48:07;1.50;99.90
37289;DHT22;23174;49.462;11.000;2022-12-18T05:50:07;1.50;99.90
37289;DHT22;23174;49.462;11.000;2022-12-18T05:52:09;1.50;99.90
37289;DHT22;23174;49.462;11.000;2022-12-18T05:54:09;1.40;99.90
37289;DHT22;23174;49.462;11.000;2022-12-18T05:56:13;1.40;99.90
37289;DHT22;23174;49.462;11.000;2022-12-18T05:58:15;1.50;99.90
37289;DHT22;23174;49.462;11.000;2022-12-18T06:00:16;1.40;99.90
37289;DHT22;23174;49.462;11.000;2022-12-18T06:02:16;1.40;99.90
37289;DHT22;23174;49.462;11.000;2022-12-18T06:04:17;1.40;99.90
37289;DHT22;23174;49.462;11.000;2022-12-18T06:06:23;1.40;99.90
37289;DHT22;23174;49.462;11.000;2022-12-18T06:08:24;1.40;99.90
37289;DHT22;23174;49.462;11.000;2022-12-18T06:10:24;1.30;99.90
37289;DHT22;23174;49.462;11.000;2022-12-18T06:12:25;1.40;99.90
37289;DHT22;23174;49.462;11.000;2022-12-18T06:14:25;1.50;99.90
37289;DHT22;23174;49.462;11.000;2022-12-18T06:16:27;1.40;99.90
37289;DHT22;23174;49.462;11.000;2022-12-18T06:18:28;1.40;99.90
37289;DHT22;23174;49.462;11.000;2022-12-18T06:20:28;1.40;99.90
37289;DHT22;23174;49.462;11.000;2022-12-18T06:22:31;1.40;99.90
37289;DHT22;23174;49.462;11.000;2022-12-18T06:24:32;1.40;99.90
37289;DHT22;23174;49.462;11.000;2022-12-18T06:26:33;1.50;99.90
37289;DHT22;23174;49.462;11.000;2022-12-18T06:28:34;1.50;99.90
37289;DHT22;23174;49.462;11.000;2022-12-18T06:30:35;1.50;99.90
37289;DHT22;23174;49.462;11.000;2022-12-18T06:32:36;1.50;99.90
37289;DHT22;23174;49.462;11.000;2022-12-18T06:34:37;1.50;99.90
37289;DHT22;23174;49.462;11.000;2022-12-18T06:36:38;1.50;99.90
37289;DHT22;23174;49.462;11.000;2022-12-18T06:38:40;1.50;99.90
37289;DHT22;23174;49.462;11.000;2022-12-18T06:40:41;1.50;99.90
37289;DHT22;23174;49.462;11.000;2022-12-18T06:42:42;1.50;99.90
37289;DHT22;23174;49.462;11.000;2022-12-18T06:44:42;1.60;99.90
37289;DHT22;23174;49.462;11.000;2022-12-18T06:46:43;1.50;99.90
37289;DHT22;23174;49.462;11.000;2022-12-18T06:48:47;1.50;99.90
37289;DHT22;23174;49.462;11.000;2022-12-18T06:50:48;1.50;99.90
37289;DHT22;23174;49.462;11.000;2022-12-18T06:52:48;1.60;99.90
37289;DHT22;23174;49.462;11.000;2022-12-18T06:54:49;1.60;99.90
37289;DHT22;23174;49.462;11.000;2022-12-18T06:56:49;1.50;99.90
37289;DHT22;23174;49.462;11.000;2022-12-18T06:58:50;1.60;99.90
37289;DHT22;23174;49.462;11.000;2022-12-18T07:00:50;1.60;99.90
37289;DHT22;23174;49.462;11.000;2022-12-18T07:02:52;1.60;99.90
37289;DHT22;23174;49.462;11.000;2022-12-18T07:04:52;1.50;99.90
37289;DHT22;23174;49.462;11.000;2022-12-18T07:06:53;1.60;99.90
37289;DHT22;23174;49.462;11.000;2022-12-18T07:08:54;1.60;99.90
37289;DHT22;23174;49.462;11.000;2022-12-18T07:10:54;1.60;99.90
37289;DHT22;23174;49.462;11.000;2022-12-18T07:12:55;1.60;99.90
37289;DHT22;23174;49.462;11.000;2022-12-18T07:14:56;1.60;99.90
37289;DHT22;23174;49.462;11.000;2022-12-18T07:16:56;1.70;99.90
37289;DHT22;23174;49.462;11.000;2022-12-18T07:18:57;1.80;99.90
37289;DHT22;23174;49.462;11.000;2022-12-18T07:20:57;2.00;99.90
37289;DHT22;23174;49.462;11.000;2022-12-18T07:22:58;2.00;99.90
37289;DHT22;23174;49.462;11.000;2022-12-18T07:24:59;2.30;99.90
37289;DHT22;23174;49.462;11.000;2022-12-18T07:26:59;2.30;99.90
37289;DHT22;23174;49.462;11.000;2022-12-18T07:29:00;2.10;99.90
37289;DHT22;23174;49.462;11.000;2022-12-18T07:31:08;2.00;99.90
37289;DHT22;23174;49.462;11.000;2022-12-18T07:33:09;2.10;99.90
37289;DHT22;23174;49.462;11.000;2022-12-18T07:35:10;2.10;99.90
37289;DHT22;23174;49.462;11.000;2022-12-18T07:37:10;2.20;99.90
37289;DHT22;23174;49.462;11.000;2022-12-18T07:39:11;2.10;99.90
37289;DHT22;23174;49.462;11.000;2022-12-18T07:41:13;2.00;99.90
37289;DHT22;23174;49.462;11.000;2022-12-18T07:43:13;1.90;99.90
37289;DHT22;23174;49.462;11.000;2022-12-18T07:45:14;1.90;99.90
37289;DHT22;23174;49.462;11.000;2022-12-18T07:47:14;1.90;99.90
37289;DHT22;23174;49.462;11.000;2022-12-18T07:49:15;1.80;99.90
37289;DHT22;23174;49.462;11.000;2022-12-18T07:51:16;1.80;99.90
37289;DHT22;23174;49.462;11.000;2022-12-18T07:53:17;1.90;99.90
37289;DHT22;23174;49.462;11.000;2022-12-18T07:55:18;1.80;99.90
37289;DHT22;23174;49.462;11.000;2022-12-18T07:57:18;1.90;99.90
37289;DHT22;23174;49.462;11.000;2022-12-18T07:59:19;1.90;99.90
37289;DHT22;23174;49.462;11.000;2022-12-18T08:01:20;1.90;99.90
37289;DHT22;23174;49.462;11.000;2022-12-18T08:03:20;1.90;99.90
37289;DHT22;23174;49.462;11.000;2022-12-18T08:05:24;2.10;99.90
37289;DHT22;23174;49.462;11.000;2022-12-18T08:07:24;2.00;99.90
37289;DHT22;23174;49.462;11.000;2022-12-18T08:09:25;2.00;99.90
37289;DHT22;23174;49.462;11.000;2022-12-18T08:11:28;2.00;99.90
37289;DHT22;23174;49.462;11.000;2022-12-18T08:13:29;2.00;99.90
37289;DHT22;23174;49.462;11.000;2022-12-18T08:15:30;2.10;99.90
37289;DHT22;23174;49.462;11.000;2022-12-18T08:17:30;2.00;99.90
37289;DHT22;23174;49.462;11.000;2022-12-18T08:19:31;2.00;99.90
37289;DHT22;23174;49.462;11.000;2022-12-18T08:21:31;2.20;99.90
37289;DHT22;23174;49.462;11.000;2022-12-18T08:23:32;2.20;99.90
37289;DHT22;23174;49.462;11.000;2022-12-18T08:25:33;2.30;99.90
37289;DHT22;23174;49.462;11.000;2022-12-18T08:27:34;2.30;99.90
37289;DHT22;23174;49.462;11.000;2022-12-18T08:29:35;2.20;99.90
37289;DHT22;23174;49.462;11.000;2022-12-18T08:31:36;2.30;99.90
37289;DHT22;23174;49.462;11.000;2022-12-18T08:33:38;2.30;99.90
37289;DHT22;23174;49.462;11.000;2022-12-18T08:35:39;2.30;99.90
37289;DHT22;23174;49.462;11.000;2022-12-18T08:37:39;2.40;99.90
37289;DHT22;23174;49.462;11.000;2022-12-18T08:39:40;2.40;99.90
37289;DHT22;23174;49.462;11.000;2022-12-18T08:41:40;2.40;99.90
37289;DHT22;23174;49.462;11.000;2022-12-18T08:43:41;2.50;99.90
37289;DHT22;23174;49.462;11.000;2022-12-18T08:46:00;2.50;99.90
37289;DHT22;23174;49.462;11.000;2022-12-18T08:48:01;2.50;99.90
37289;DHT22;23174;49.462;11.000;2022-12-18T08:50:02;2.50;99.90
37289;DHT22;23174;49.462;11.000;2022-12-18T08:52:02;2.50;99.90
37289;DHT22;23174;49.462;11.000;2022-12-18T08:54:03;2.40;99.90
37289;DHT22;23174;49.462;11.000;2022-12-18T08:56:05;2.40;99.90
37289;DHT22;23174;49.462;11.000;2022-12-18T08:58:05;2.40;99.90
37289;DHT22;23174;49.462;11.000;2022-12-18T09:00:06;2.60;99.90
37289;DHT22;23174;49.462;11.000;2022-12-18T09:02:11;2.60;99.90
37289;DHT22;23174;49.462;11.000;2022-12-18T09:04:12;2.60;99.90
37289;DHT22;23174;49.462;11.000;2022-12-18T09:06:17;2.60;99.90
37289;DHT22;23174;49.462;11.000;2022-12-18T09:08:17;2.50;99.90
37289;DHT22;23174;49.462;11.000;2022-12-18T09:10:18;2.50;99.90
37289;DHT22;23174;49.462;11.000;2022-12-18T09:12:18;2.60;99.90
37289;DHT22;23174;49.462;11.000;2022-12-18T09:14:19;2.60;99.90
37289;DHT22;23174;49.462;11.000;2022-12-18T09:16:21;2.70;99.90
37289;DHT22;23174;49.462;11.000;2022-12-18T09:18:23;2.70;99.90
37289;DHT22;23174;49.462;11.000;2022-12-18T09:20:23;2.70;99.90
37289;DHT22;23174;49.462;11.000;2022-12-18T09:22:24;2.80;99.90
37289;DHT22;23174;49.462;11.000;2022-12-18T09:24:25;2.70;99.90
37289;DHT22;23174;49.462;11.000;2022-12-18T09:26:26;2.70;99.90
37289;DHT22;23174;49.462;11.000;2022-12-18T09:28:27;2.70;99.90
37289;DHT22;23174;49.462;11.000;2022-12-18T09:30:28;2.70;99.90
37289;DHT22;23174;49.462;11.000;2022-12-18T09:32:28;2.80;99.90
37289;DHT22;23174;49.462;11.000;2022-12-18T09:34:29;2.70;99.90
37289;DHT22;23174;49.462;11.000;2022-12-18T09:36:29;2.70;99.90
37289;DHT22;23174;49.462;11.000;2022-12-18T09:38:30;2.80;99.90
37289;DHT22;23174;49.462;11.000;2022-12-18T09:40:36;2.90;99.90
37289;DHT22;23174;49.462;11.000;2022-12-18T09:42:40;2.90;99.90
37289;DHT22;23174;49.462;11.000;2022-12-18T09:44:43;2.90;99.90
37289;DHT22;23174;49.462;11.000;2022-12-18T09:47:09;2.80;99.90
37289;DHT22;23174;49.462;11.000;2022-12-18T09:49:15;2.80;99.90
37289;DHT22;23174;49.462;11.000;2022-12-18T09:51:28;3.00;99.90
37289;DHT22;23174;49.462;11.000;2022-12-18T09:53:33;3.10;99.90
37289;DHT22;23174;49.462;11.000;2022-12-18T09:55:37;3.10;99.90
37289;DHT22;23174;49.462;11.000;2022-12-18T09:57:45;3.10;99.90
37289;DHT22;23174;49.462;11.000;2022-12-18T09:59:59;3.00;99.90
37289;DHT22;23174;49.462;11.000;2022-12-18T10:02:23;3.40;99.90
37289;DHT22;23174;49.462;11.000;2022-12-18T10:04:25;3.30;99.90
37289;DHT22;23174;49.462;11.000;2022-12-18T10:11:03;2.70;99.90
37289;DHT22;23174;49.462;11.000;2022-12-18T10:13:35;2.80;99.90
37289;DHT22;23174;49.462;11.000;2022-12-18T10:17:53;3.00;99.90
37289;DHT22;23174;49.462;11.000;2022-12-18T10:26:49;2.80;99.90
37289;DHT22;23174;49.462;11.000;2022-12-18T10:28:53;2.90;99.90
37289;DHT22;23174;49.462;11.000;2022-12-18T10:30:53;2.80;99.90
37289;DHT22;23174;49.462;11.000;2022-12-18T10:32:54;2.90;99.90
37289;DHT22;23174;49.462;11.000;2022-12-18T10:34:57;2.90;99.90
37289;DHT22;23174;49.462;11.000;2022-12-18T10:37:01;2.80;99.90
37289;DHT22;23174;49.462;11.000;2022-12-18T10:39:18;2.90;99.90
37289;DHT22;23174;49.462;11.000;2022-12-18T10:43:23;3.10;99.90
37289;DHT22;23174;49.462;11.000;2022-12-18T10:45:24;3.30;99.90
37289;DHT22;23174;49.462;11.000;2022-12-18T10:47:24;3.30;99.90
37289;DHT22;23174;49.462;11.000;2022-12-18T10:49:33;3.30;99.90
37289;DHT22;23174;49.462;11.000;2022-12-18T10:51:37;3.10;99.90
37289;DHT22;23174;49.462;11.000;2022-12-18T10:53:40;3.20;99.90
37289;DHT22;23174;49.462;11.000;2022-12-18T10:55:44;3.30;99.90
37289;DHT22;23174;49.462;11.000;2022-12-18T10:57:45;3.30;99.90
37289;DHT22;23174;49.462;11.000;2022-12-18T10:59:55;3.30;99.90
37289;DHT22;23174;49.462;11.000;2022-12-18T11:01:57;3.40;99.90
37289;DHT22;23174;49.462;11.000;2022-12-18T11:04:02;3.40;99.90
37289;DHT22;23174;49.462;11.000;2022-12-18T11:06:12;3.40;99.90
37289;DHT22;23174;49.462;11.000;2022-12-18T11:08:21;3.40;99.90
37289;DHT22;23174;49.462;11.000;2022-12-18T11:12:32;3.50;99.90
37289;DHT22;23174;49.462;11.000;2022-12-18T11:14:42;3.60;99.90
37289;DHT22;23174;49.462;11.000;2022-12-18T11:16:46;3.50;99.90
37289;DHT22;23174;49.462;11.000;2022-12-18T11:18:47;3.60;99.90
37289;DHT22;23174;49.462;11.000;2022-12-18T11:20:56;3.50;99.90
37289;DHT22;23174;49.462;11.000;2022-12-18T11:23:04;3.30;99.90
37289;DHT22;23174;49.462;11.000;2022-12-18T11:27:18;3.40;99.90
37289;DHT22;23174;49.462;11.000;2022-12-18T11:29:26;3.40;99.90
37289;DHT22;23174;49.462;11.000;2022-12-18T11:31:28;3.40;99.90
37289;DHT22;23174;49.462;11.000;2022-12-18T11:33:31;3.40;99.90
37289;DHT22;23174;49.462;11.000;2022-12-18T11:35:37;3.40;99.90
37289;DHT22;23174;49.462;11.000;2022-12-18T11:37:41;3.60;99.90
37289;DHT22;23174;49.462;11.000;2022-12-18T11:39:53;3.70;99.90
37289;DHT22;23174;49.462;11.000;2022-12-18T11:42:11;3.60;99.90
37289;DHT22;23174;49.462;11.000;2022-12-18T11:44:16;3.60;99.90
37289;DHT22;23174;49.462;11.000;2022-12-18T11:46:34;3.50;99.90
37289;DHT22;23174;49.462;11.000;2022-12-18T11:48:47;3.50;99.90
37289;DHT22;23174;49.462;11.000;2022-12-18T11:50:55;3.40;99.90
37289;DHT22;23174;49.462;11.000;2022-12-18T11:52:59;3.60;99.90
37289;DHT22;23174;49.462;11.000;2022-12-18T11:55:10;3.60;99.90
37289;DHT22;23174;49.462;11.000;2022-12-18T11:57:47;3.50;99.90
37289;DHT22;23174;49.462;11.000;2022-12-18T12:00:11;3.60;99.90
37289;DHT22;23174;49.462;11.000;2022-12-18T12:07:05;3.40;99.90
37289;DHT22;23174;49.462;11.000;2022-12-18T12:11:46;3.40;99.90
37289;DHT22;23174;49.462;11.000;2022-12-18T12:21:14;3.50;99.90
37289;DHT22;23174;49.462;11.000;2022-12-18T12:23:28;3.50;99.90
37289;DHT22;23174;49.462;11.000;2022-12-18T12:25:44;3.40;99.90
37289;DHT22;23174;49.462;11.000;2022-12-18T12:28:07;3.50;99.90
37289;DHT22;23174;49.462;11.000;2022-12-18T12:31:09;3.40;99.90
37289;DHT22;23174;49.462;11.000;2022-12-18T12:33:35;3.50;99.90
37289;DHT22;23174;49.462;11.000;2022-12-18T12:35:56;3.50;99.90
37289;DHT22;23174;49.462;11.000;2022-12-18T12:40:00;3.50;99.90
37289;DHT22;23174;49.462;11.000;2022-12-18T12:42:08;3.50;99.90
37289;DHT22;23174;49.462;11.000;2022-12-18T12:44:46;3.60;99.90
37289;DHT22;23174;49.462;11.000;2022-12-18T12:46:49;3.60;99.90
37289;DHT22;23174;49.462;11.000;2022-12-18T12:49:03;3.50;99.90
37289;DHT22;23174;49.462;11.000;2022-12-18T12:51:21;3.60;99.90
37289;DHT22;23174;49.462;11.000;2022-12-18T12:53:29;3.60;99.90
37289;DHT22;23174;49.462;11.000;2022-12-18T12:55:30;3.70;99.90
37289;DHT22;23174;49.462;11.000;2022-12-18T12:57:40;3.60;99.90
37289;DHT22;23174;49.462;11.000;2022-12-18T13:04:44;3.70;99.90
37289;DHT22;23174;49.462;11.000;2022-12-18T13:06:53;3.70;99.90
37289;DHT22;23174;49.462;11.000;2022-12-18T13:08:59;3.70;99.90
37289;DHT22;23174;49.462;11.000;2022-12-18T13:11:00;3.70;99.90
37289;DHT22;23174;49.462;11.000;2022-12-18T13:13:20;3.60;99.90
37289;DHT22;23174;49.462;11.000;2022-12-18T13:15:23;3.60;99.90
37289;DHT22;23174;49.462;11.000;2022-12-18T13:17:28;3.70;99.90
37289;DHT22;23174;49.462;11.000;2022-12-18T13:19:29;3.70;99.90
37289;DHT22;23174;49.462;11.000;2022-12-18T13:21:34;3.60;99.90
37289;DHT22;23174;49.462;11.000;2022-12-18T13:23:36;3.50;99.90
37289;DHT22;23174;49.462;11.000;2022-12-18T13:25:38;3.60;99.90
37289;DHT22;23174;49.462;11.000;2022-12-18T13:27:46;3.70;99.90
37289;DHT22;23174;49.462;11.000;2022-12-18T13:29:51;3.70;99.90
37289;DHT22;23174;49.462;11.000;2022-12-18T13:36:33;3.70;99.90
37289;DHT22;23174;49.462;11.000;2022-12-18T13:38:35;3.60;99.90
37289;DHT22;23174;49.462;11.000;2022-12-18T13:42:40;3.80;99.90
37289;DHT22;23174;49.462;11.000;2022-12-18T13:44:59;3.70;99.90
37289;DHT22;23174;49.462;11.000;2022-12-18T13:47:04;3.60;99.90
37289;DHT22;23174;49.462;11.000;2022-12-18T13:49:26;3.60;99.90
37289;DHT22;23174;49.462;11.000;2022-12-18T13:51:31;3.60;99.90
37289;DHT22;23174;49.462;11.000;2022-12-18T13:54:02;3.70;99.90
37289;DHT22;23174;49.462;11.000;2022-12-18T13:56:05;3.60;99.90
37289;DHT22;23174;49.462;11.000;2022-12-18T13:58:06;3.60;99.90
37289;DHT22;23174;49.462;11.000;2022-12-18T14:02:26;3.50;99.90
37289;DHT22;23174;49.462;11.000;2022-12-18T14:04:28;3.50;99.90
37289;DHT22;23174;49.462;11.000;2022-12-18T14:06:29;3.50;99.90
37289;DHT22;23174;49.462;11.000;2022-12-18T14:08:36;3.50;99.90
37289;DHT22;23174;49.462;11.000;2022-12-18T14:10:41;3.50;99.90
37289;DHT22;23174;49.462;11.000;2022-12-18T14:12:47;3.40;99.90